sensor_id;sensor_type;location;lat;lon;timestamp;pressure;altitude;pressure_sealevel;temperature;humidity
20350;BME280;10332;50.208;18.988;2023-05-22T00:01:43;98221.78;;;16.34;65.08
20350;BME280;10332;50.208;18.988;2023-05-22T00:04:10;98215.84;;;16.32;65.39
20350;BME280;10332;50.208;18.988;2023-05-22T00:06:43;98219.97;;;16.25;65.39
20350;BME280;10332;50.208;18.988;2023-05-22T00:09:10;98223.72;;;16.22;65.23
20350;BME280;10332;50.208;18.988;2023-05-22T00:11:38;98207.63;;;16.15;64.94
20350;BME280;10332;50.208;18.988;2023-05-22T00:14:05;98208.59;;;16.14;64.68
20350;BME280;10332;50.208;18.988;2023-05-22T00:16:33;98202.50;;;16.14;64.63
20350;BME280;10332;50.208;18.988;2023-05-22T00:19:00;98202.63;;;16.03;64.61
20350;BME280;10332;50.208;18.988;2023-05-22T00:21:29;98199.84;;;16.04;64.32
20350;BME280;10332;50.208;18.988;2023-05-22T00:24:01;98202.03;;;15.99;64.76
20350;BME280;10332;50.208;18.988;2023-05-22T00:26:29;98200.97;;;16.02;64.14
20350;BME280;10332;50.208;18.988;2023-05-22T00:28:56;98200.00;;;16.03;64.11
20350;BME280;10332;50.208;18.988;2023-05-22T00:31:24;98200.94;;;15.92;63.95
20350;BME280;10332;50.208;18.988;2023-05-22T00:33:52;98189.00;;;15.88;64.13
20350;BME280;10332;50.208;18.988;2023-05-22T00:36:19;98184.72;;;15.87;64.57
20350;BME280;10332;50.208;18.988;2023-05-22T00:38:47;98190.94;;;15.86;63.88
20350;BME280;10332;50.208;18.988;2023-05-22T00:41:15;98185.25;;;15.81;63.76
20350;BME280;10332;50.208;18.988;2023-05-22T00:43:42;98178.59;;;15.77;63.84
20350;BME280;10332;50.208;18.988;2023-05-22T00:46:11;98187.19;;;15.79;63.52
20350;BME280;10332;50.208;18.988;2023-05-22T00:48:39;98183.84;;;15.67;63.86
20350;BME280;10332;50.208;18.988;2023-05-22T00:51:07;98181.91;;;15.69;63.85
20350;BME280;10332;50.208;18.988;2023-05-22T00:53:35;98185.38;;;15.79;63.48
20350;BME280;10332;50.208;18.988;2023-05-22T00:56:04;98178.28;;;15.70;63.27
20350;BME280;10332;50.208;18.988;2023-05-22T00:58:33;98179.41;;;15.68;62.79
20350;BME280;10332;50.208;18.988;2023-05-22T01:01:00;98179.41;;;15.68;63.36
20350;BME280;10332;50.208;18.988;2023-05-22T01:03:28;98180.22;;;15.68;62.70
20350;BME280;10332;50.208;18.988;2023-05-22T01:05:56;98189.25;;;15.66;62.57
20350;BME280;10332;50.208;18.988;2023-05-22T01:08:24;98187.09;;;15.59;62.82
20350;BME280;10332;50.208;18.988;2023-05-22T01:11:00;98182.56;;;15.61;63.19
20350;BME280;10332;50.208;18.988;2023-05-22T01:14:13;98180.19;;;15.58;62.49
20350;BME280;10332;50.208;18.988;2023-05-22T01:19:53;98175.03;;;15.47;63.18
20350;BME280;10332;50.208;18.988;2023-05-22T01:31:26;98174.84;;;15.39;63.51
20350;BME280;10332;50.208;18.988;2023-05-22T01:33:56;98171.22;;;15.30;64.11
20350;BME280;10332;50.208;18.988;2023-05-22T01:36:29;98175.34;;;15.23;64.50
20350;BME280;10332;50.208;18.988;2023-05-22T01:38:58;98176.16;;;15.24;64.39
20350;BME280;10332;50.208;18.988;2023-05-22T01:41:29;98168.38;;;15.13;64.89
20350;BME280;10332;50.208;18.988;2023-05-22T01:43:58;98170.03;;;15.14;64.83
20350;BME280;10332;50.208;18.988;2023-05-22T01:46:30;98169.19;;;15.13;64.62
20350;BME280;10332;50.208;18.988;2023-05-22T01:48:58;98165.72;;;15.13;64.46
20350;BME280;10332;50.208;18.988;2023-05-22T01:52:00;98159.59;;;15.02;64.59
20350;BME280;10332;50.208;18.988;2023-05-22T01:57:17;98158.00;;;14.90;64.75
20350;BME280;10332;50.208;18.988;2023-05-22T02:02:41;98148.25;;;14.81;65.63
20350;BME280;10332;50.208;18.988;2023-05-22T02:05:11;98162.44;;;14.69;65.92
20350;BME280;10332;50.208;18.988;2023-05-22T02:07:41;98155.72;;;14.76;65.86
20350;BME280;10332;50.208;18.988;2023-05-22T02:10:12;98162.78;;;14.75;65.84
20350;BME280;10332;50.208;18.988;2023-05-22T02:12:41;98154.34;;;14.82;65.27
20350;BME280;10332;50.208;18.988;2023-05-22T02:15:09;98160.44;;;14.82;65.29
20350;BME280;10332;50.208;18.988;2023-05-22T02:17:37;98156.41;;;14.78;65.32
20350;BME280;10332;50.208;18.988;2023-05-22T02:20:11;98155.59;;;14.77;65.38
20350;BME280;10332;50.208;18.988;2023-05-22T02:22:42;98158.41;;;14.65;65.72
20350;BME280;10332;50.208;18.988;2023-05-22T02:25:12;98162.50;;;14.58;66.48
20350;BME280;10332;50.208;18.988;2023-05-22T02:27:46;98157.19;;;14.48;66.56
20350;BME280;10332;50.208;18.988;2023-05-22T02:30:14;98160.78;;;14.47;66.86
20350;BME280;10332;50.208;18.988;2023-05-22T02:32:42;98157.66;;;14.42;66.78
20350;BME280;10332;50.208;18.988;2023-05-22T02:35:10;98153.72;;;14.36;66.98
20350;BME280;10332;50.208;18.988;2023-05-22T02:37:38;98151.66;;;14.19;67.34
20350;BME280;10332;50.208;18.988;2023-05-22T02:40:06;98154.69;;;14.35;67.36
20350;BME280;10332;50.208;18.988;2023-05-22T02:42:34;98148.03;;;14.31;67.64
20350;BME280;10332;50.208;18.988;2023-05-22T02:45:03;98150.53;;;14.33;67.57
20350;BME280;10332;50.208;18.988;2023-05-22T02:47:30;98141.69;;;14.34;67.43
20350;BME280;10332;50.208;18.988;2023-05-22T02:49:58;98150.66;;;14.31;67.61
20350;BME280;10332;50.208;18.988;2023-05-22T02:52:25;98149.00;;;14.30;68.08
20350;BME280;10332;50.208;18.988;2023-05-22T02:54:54;98151.63;;;14.30;67.66
20350;BME280;10332;50.208;18.988;2023-05-22T02:57:22;98154.25;;;14.30;67.66
20350;BME280;10332;50.208;18.988;2023-05-22T02:59:50;98160.47;;;14.29;67.80
20350;BME280;10332;50.208;18.988;2023-05-22T03:02:18;98154.56;;;14.37;67.69
20350;BME280;10332;50.208;18.988;2023-05-22T03:04:46;98153.44;;;14.30;67.89
20350;BME280;10332;50.208;18.988;2023-05-22T03:07:13;98154.97;;;14.32;67.82
20350;BME280;10332;50.208;18.988;2023-05-22T03:09:41;98150.66;;;14.31;67.71
20350;BME280;10332;50.208;18.988;2023-05-22T03:12:09;98157.84;;;14.29;67.85
20350;BME280;10332;50.208;18.988;2023-05-22T03:14:36;98157.13;;;14.27;68.18
20350;BME280;10332;50.208;18.988;2023-05-22T03:17:04;98153.91;;;14.24;67.98
20350;BME280;10332;50.208;18.988;2023-05-22T03:19:32;98152.00;;;14.26;68.06
20350;BME280;10332;50.208;18.988;2023-05-22T03:21:59;98155.59;;;14.25;68.39
20350;BME280;10332;50.208;18.988;2023-05-22T03:24:27;98160.50;;;14.18;68.36
20350;BME280;10332;50.208;18.988;2023-05-22T03:26:55;98162.41;;;14.16;68.81
20350;BME280;10332;50.208;18.988;2023-05-22T03:29:22;98162.06;;;14.09;68.61
20350;BME280;10332;50.208;18.988;2023-05-22T03:31:50;98163.13;;;14.18;68.25
20350;BME280;10332;50.208;18.988;2023-05-22T03:34:17;98156.41;;;14.25;68.32
20350;BME280;10332;50.208;18.988;2023-05-22T03:36:45;98152.25;;;14.23;68.21
20350;BME280;10332;50.208;18.988;2023-05-22T03:39:12;98150.91;;;14.28;68.12
20350;BME280;10332;50.208;18.988;2023-05-22T03:41:40;98148.88;;;14.32;68.50
20350;BME280;10332;50.208;18.988;2023-05-22T03:44:08;98158.22;;;14.25;68.42
20350;BME280;10332;50.208;18.988;2023-05-22T03:46:35;98154.63;;;14.26;68.36
20350;BME280;10332;50.208;18.988;2023-05-22T03:49:03;98155.47;;;14.26;68.29
20350;BME280;10332;50.208;18.988;2023-05-22T03:51:30;98163.94;;;14.30;68.45
20350;BME280;10332;50.208;18.988;2023-05-22T03:53:58;98160.84;;;14.25;68.12
20350;BME280;10332;50.208;18.988;2023-05-22T03:56:25;98158.16;;;14.36;68.01
20350;BME280;10332;50.208;18.988;2023-05-22T03:58:53;98170.47;;;14.35;67.92
20350;BME280;10332;50.208;18.988;2023-05-22T04:01:20;98156.13;;;14.39;67.81
20350;BME280;10332;50.208;18.988;2023-05-22T04:03:48;98164.88;;;14.29;67.90
20350;BME280;10332;50.208;18.988;2023-05-22T04:06:15;98164.25;;;14.36;68.00
20350;BME280;10332;50.208;18.988;2023-05-22T04:08:43;98165.19;;;14.35;68.11
20350;BME280;10332;50.208;18.988;2023-05-22T04:11:11;98164.25;;;14.36;67.91
20350;BME280;10332;50.208;18.988;2023-05-22T04:13:42;98170.56;;;14.45;67.81
20350;BME280;10332;50.208;18.988;2023-05-22T04:16:09;98163.50;;;14.45;68.04
20350;BME280;10332;50.208;18.988;2023-05-22T04:18:37;98164.94;;;14.50;67.40
20350;BME280;10332;50.208;18.988;2023-05-22T04:21:04;98160.03;;;14.56;67.43
20350;BME280;10332;50.208;18.988;2023-05-22T04:23:34;98161.78;;;14.56;67.78
20350;BME280;10332;50.208;18.988;2023-05-22T04:26:02;98166.41;;;14.63;67.03
20350;BME280;10332;50.208;18.988;2023-05-22T04:28:29;98162.56;;;14.67;67.01
20350;BME280;10332;50.208;18.988;2023-05-22T04:30:57;98157.56;;;14.64;67.09
20350;BME280;10332;50.208;18.988;2023-05-22T04:33:25;98156.50;;;14.67;66.98
20350;BME280;10332;50.208;18.988;2023-05-22T04:35:52;98155.03;;;14.74;67.09
20350;BME280;10332;50.208;18.988;2023-05-22T04:38:20;98159.75;;;14.80;66.54
20350;BME280;10332;50.208;18.988;2023-05-22T04:40:48;98165.19;;;14.88;66.66
20350;BME280;10332;50.208;18.988;2023-05-22T04:43:16;98157.03;;;14.91;67.10
20350;BME280;10332;50.208;18.988;2023-05-22T04:45:44;98153.09;;;15.07;66.63
20350;BME280;10332;50.208;18.988;2023-05-22T04:48:12;98156.00;;;15.03;66.45
20350;BME280;10332;50.208;18.988;2023-05-22T04:50:40;98151.16;;;15.09;66.02
20350;BME280;10332;50.208;18.988;2023-05-22T04:53:08;98152.31;;;15.16;66.25
20350;BME280;10332;50.208;18.988;2023-05-22T04:55:35;98156.09;;;15.23;65.81
20350;BME280;10332;50.208;18.988;2023-05-22T04:58:03;98155.56;;;15.29;65.67
20350;BME280;10332;50.208;18.988;2023-05-22T05:00:32;98160.09;;;15.27;65.15
20350;BME280;10332;50.208;18.988;2023-05-22T05:03:00;98154.03;;;15.36;65.16
20350;BME280;10332;50.208;18.988;2023-05-22T05:05:27;98145.63;;;15.42;64.67
20350;BME280;10332;50.208;18.988;2023-05-22T05:07:55;98146.59;;;15.41;64.78
20350;BME280;10332;50.208;18.988;2023-05-22T05:10:22;98146.50;;;15.52;65.13
20350;BME280;10332;50.208;18.988;2023-05-22T05:12:50;98149.75;;;15.66;64.73
20350;BME280;10332;50.208;18.988;2023-05-22T05:15:17;98154.06;;;15.67;64.14
20350;BME280;10332;50.208;18.988;2023-05-22T05:17:46;98153.53;;;15.73;64.26
20350;BME280;10332;50.208;18.988;2023-05-22T05:20:13;98157.84;;;15.83;63.63
20350;BME280;10332;50.208;18.988;2023-05-22T05:22:41;98153.41;;;15.94;63.40
20350;BME280;10332;50.208;18.988;2023-05-22T05:25:10;98163.13;;;16.03;63.38
20350;BME280;10332;50.208;18.988;2023-05-22T05:27:38;98158.41;;;16.06;62.95
20350;BME280;10332;50.208;18.988;2023-05-22T05:30:07;98161.19;;;16.24;62.58
20350;BME280;10332;50.208;18.988;2023-05-22T05:32:35;98164.50;;;16.26;62.27
20350;BME280;10332;50.208;18.988;2023-05-22T05:35:03;98170.34;;;16.49;61.48
20350;BME280;10332;50.208;18.988;2023-05-22T05:37:30;98161.75;;;16.57;60.11
20350;BME280;10332;50.208;18.988;2023-05-22T05:39:58;98161.72;;;16.66;59.58
20350;BME280;10332;50.208;18.988;2023-05-22T05:42:25;98161.31;;;16.81;59.36
20350;BME280;10332;50.208;18.988;2023-05-22T05:44:53;98163.78;;;16.92;58.95
20350;BME280;10332;50.208;18.988;2023-05-22T05:47:20;98158.34;;;17.03;59.10
20350;BME280;10332;50.208;18.988;2023-05-22T05:49:50;98161.50;;;17.07;58.97
20350;BME280;10332;50.208;18.988;2023-05-22T05:52:18;98155.53;;;17.14;58.15
20350;BME280;10332;50.208;18.988;2023-05-22T05:54:45;98153.56;;;17.16;58.44
20350;BME280;10332;50.208;18.988;2023-05-22T05:57:14;98151.34;;;17.21;57.94
20350;BME280;10332;50.208;18.988;2023-05-22T05:59:42;98152.13;;;17.31;58.46
20350;BME280;10332;50.208;18.988;2023-05-22T06:02:09;98154.41;;;17.54;58.03
20350;BME280;10332;50.208;18.988;2023-05-22T06:04:37;98150.88;;;17.63;58.15
20350;BME280;10332;50.208;18.988;2023-05-22T06:07:05;98144.31;;;17.67;58.21
20350;BME280;10332;50.208;18.988;2023-05-22T06:09:32;98149.75;;;17.66;57.07
20350;BME280;10332;50.208;18.988;2023-05-22T06:12:00;98147.31;;;17.82;56.72
20350;BME280;10332;50.208;18.988;2023-05-22T06:14:27;98144.59;;;17.92;56.21
20350;BME280;10332;50.208;18.988;2023-05-22T06:16:55;98152.31;;;18.03;56.72
20350;BME280;10332;50.208;18.988;2023-05-22T06:19:22;98150.22;;;18.06;55.65
20350;BME280;10332;50.208;18.988;2023-05-22T06:21:50;98141.44;;;18.06;56.19
20350;BME280;10332;50.208;18.988;2023-05-22T06:24:18;98149.25;;;18.07;55.59
20350;BME280;10332;50.208;18.988;2023-05-22T06:26:45;98137.69;;;18.26;55.41
20350;BME280;10332;50.208;18.988;2023-05-22T06:29:13;98141.75;;;18.38;55.34
20350;BME280;10332;50.208;18.988;2023-05-22T06:31:40;98130.19;;;18.39;54.30
20350;BME280;10332;50.208;18.988;2023-05-22T06:34:08;98140.50;;;18.51;54.17
20350;BME280;10332;50.208;18.988;2023-05-22T06:36:36;98138.84;;;18.67;54.12
20350;BME280;10332;50.208;18.988;2023-05-22T06:39:03;98131.34;;;18.81;53.32
20350;BME280;10332;50.208;18.988;2023-05-22T06:41:31;98135.50;;;18.83;52.94
20350;BME280;10332;50.208;18.988;2023-05-22T06:44:00;98135.22;;;18.94;52.05
20350;BME280;10332;50.208;18.988;2023-05-22T06:46:28;98144.75;;;19.13;51.50
20350;BME280;10332;50.208;18.988;2023-05-22T06:48:56;98131.81;;;19.36;51.12
20350;BME280;10332;50.208;18.988;2023-05-22T06:51:24;98139.78;;;19.44;51.06
20350;BME280;10332;50.208;18.988;2023-05-22T06:53:52;98133.59;;;19.62;48.98
20350;BME280;10332;50.208;18.988;2023-05-22T06:56:19;98131.31;;;19.75;48.41
20350;BME280;10332;50.208;18.988;2023-05-22T06:58:48;98133.31;;;19.81;46.95
20350;BME280;10332;50.208;18.988;2023-05-22T07:01:17;98130.53;;;19.91;48.64
20350;BME280;10332;50.208;18.988;2023-05-22T07:03:45;98138.34;;;20.08;47.88
20350;BME280;10332;50.208;18.988;2023-05-22T07:06:13;98134.22;;;20.14;45.33
20350;BME280;10332;50.208;18.988;2023-05-22T07:08:41;98131.91;;;20.19;43.81
20350;BME280;10332;50.208;18.988;2023-05-22T07:11:09;98135.72;;;20.33;43.53
20350;BME280;10332;50.208;18.988;2023-05-22T07:13:36;98127.97;;;20.56;43.99
20350;BME280;10332;50.208;18.988;2023-05-22T07:16:04;98133.09;;;20.65;44.61
20350;BME280;10332;50.208;18.988;2023-05-22T07:18:32;98132.72;;;20.93;44.39
20350;BME280;10332;50.208;18.988;2023-05-22T07:21:00;98131.69;;;21.02;43.66
20350;BME280;10332;50.208;18.988;2023-05-22T07:23:27;98129.38;;;21.07;43.64
20350;BME280;10332;50.208;18.988;2023-05-22T07:25:55;98125.53;;;21.18;43.15
20350;BME280;10332;50.208;18.988;2023-05-22T07:28:23;98128.81;;;21.20;41.98
20350;BME280;10332;50.208;18.988;2023-05-22T07:30:50;98131.25;;;21.46;39.67
20350;BME280;10332;50.208;18.988;2023-05-22T07:33:18;98126.63;;;21.48;40.13
20350;BME280;10332;50.208;18.988;2023-05-22T07:35:45;98133.50;;;21.65;39.51
20350;BME280;10332;50.208;18.988;2023-05-22T07:38:13;98127.88;;;21.91;40.11
20350;BME280;10332;50.208;18.988;2023-05-22T07:40:41;98138.13;;;21.71;38.65
20350;BME280;10332;50.208;18.988;2023-05-22T07:43:08;98128.50;;;21.70;37.84
20350;BME280;10332;50.208;18.988;2023-05-22T07:45:36;98131.06;;;21.87;38.37
20350;BME280;10332;50.208;18.988;2023-05-22T07:48:05;98140.06;;;21.86;37.68
20350;BME280;10332;50.208;18.988;2023-05-22T07:50:33;98133.09;;;21.85;38.13
20350;BME280;10332;50.208;18.988;2023-05-22T07:53:01;98145.44;;;22.00;37.45
20350;BME280;10332;50.208;18.988;2023-05-22T07:55:31;98142.66;;;21.94;36.03
20350;BME280;10332;50.208;18.988;2023-05-22T07:57:58;98141.63;;;22.03;35.82
20350;BME280;10332;50.208;18.988;2023-05-22T08:00:26;98138.78;;;22.04;37.30
20350;BME280;10332;50.208;18.988;2023-05-22T08:02:53;98127.94;;;22.14;37.00
20350;BME280;10332;50.208;18.988;2023-05-22T08:05:21;98140.81;;;22.25;36.48
20350;BME280;10332;50.208;18.988;2023-05-22T08:07:49;98130.88;;;22.42;36.69
20350;BME280;10332;50.208;18.988;2023-05-22T08:10:18;98138.47;;;22.30;36.52
20350;BME280;10332;50.208;18.988;2023-05-22T08:12:45;98126.78;;;22.54;35.69
20350;BME280;10332;50.208;18.988;2023-05-22T08:15:13;98132.00;;;22.48;35.27
20350;BME280;10332;50.208;18.988;2023-05-22T08:17:41;98136.34;;;22.63;35.38
20350;BME280;10332;50.208;18.988;2023-05-22T08:20:09;98132.09;;;22.54;35.58
20350;BME280;10332;50.208;18.988;2023-05-22T08:22:38;98130.75;;;22.73;35.96
20350;BME280;10332;50.208;18.988;2023-05-22T08:25:08;98126.13;;;22.75;35.39
20350;BME280;10332;50.208;18.988;2023-05-22T08:27:35;98130.31;;;22.70;35.14
20350;BME280;10332;50.208;18.988;2023-05-22T08:30:04;98136.97;;;22.88;34.12
20350;BME280;10332;50.208;18.988;2023-05-22T08:32:31;98133.16;;;22.68;34.83
20350;BME280;10332;50.208;18.988;2023-05-22T08:35:00;98135.88;;;22.60;35.80
20350;BME280;10332;50.208;18.988;2023-05-22T08:37:27;98113.44;;;22.77;35.39
20350;BME280;10332;50.208;18.988;2023-05-22T08:39:55;98134.63;;;22.93;35.41
20350;BME280;10332;50.208;18.988;2023-05-22T08:42:23;98129.03;;;23.03;35.73
20350;BME280;10332;50.208;18.988;2023-05-22T08:44:52;98117.91;;;23.14;34.65
20350;BME280;10332;50.208;18.988;2023-05-22T08:47:25;98122.97;;;23.39;35.89
20350;BME280;10332;50.208;18.988;2023-05-22T08:49:55;98116.03;;;23.44;34.90
20350;BME280;10332;50.208;18.988;2023-05-22T08:52:36;98113.84;;;23.18;34.92
20350;BME280;10332;50.208;18.988;2023-05-22T08:55:09;98111.09;;;23.27;34.15
20350;BME280;10332;50.208;18.988;2023-05-22T08:57:37;98107.88;;;23.31;34.64
20350;BME280;10332;50.208;18.988;2023-05-22T09:00:08;98117.53;;;23.62;35.47
20350;BME280;10332;50.208;18.988;2023-05-22T09:02:39;98112.59;;;23.80;33.57
20350;BME280;10332;50.208;18.988;2023-05-22T09:05:09;98105.31;;;23.89;33.52
20350;BME280;10332;50.208;18.988;2023-05-22T09:07:36;98098.94;;;23.68;33.37
20350;BME280;10332;50.208;18.988;2023-05-22T09:10:06;98099.75;;;24.05;33.97
20350;BME280;10332;50.208;18.988;2023-05-22T09:12:34;98106.81;;;24.13;33.60
20350;BME280;10332;50.208;18.988;2023-05-22T09:15:09;98098.28;;;24.02;32.47
20350;BME280;10332;50.208;18.988;2023-05-22T09:17:40;98108.16;;;24.45;32.76
20350;BME280;10332;50.208;18.988;2023-05-22T09:20:08;98102.19;;;24.71;32.42
20350;BME280;10332;50.208;18.988;2023-05-22T09:22:39;98103.91;;;24.78;31.98
20350;BME280;10332;50.208;18.988;2023-05-22T09:25:07;98101.81;;;24.74;31.47
20350;BME280;10332;50.208;18.988;2023-05-22T09:27:35;98110.03;;;25.00;31.61
20350;BME280;10332;50.208;18.988;2023-05-22T09:30:03;98109.34;;;25.19;31.01
20350;BME280;10332;50.208;18.988;2023-05-22T09:32:30;98103.97;;;25.54;30.81
20350;BME280;10332;50.208;18.988;2023-05-22T09:35:02;98106.69;;;26.55;29.98
20350;BME280;10332;50.208;18.988;2023-05-22T09:37:35;98107.38;;;27.48;27.67
20350;BME280;10332;50.208;18.988;2023-05-22T09:40:09;98107.13;;;28.64;26.62
20350;BME280;10332;50.208;18.988;2023-05-22T09:42:37;98115.84;;;29.46;26.24
20350;BME280;10332;50.208;18.988;2023-05-22T09:45:06;98106.63;;;32.13;24.81
20350;BME280;10332;50.208;18.988;2023-05-22T09:47:34;98103.34;;;32.73;22.95
20350;BME280;10332;50.208;18.988;2023-05-22T09:50:04;98111.78;;;33.71;21.24
20350;BME280;10332;50.208;18.988;2023-05-22T09:52:35;98116.38;;;34.83;19.53
20350;BME280;10332;50.208;18.988;2023-05-22T09:55:07;98111.69;;;36.51;18.41
20350;BME280;10332;50.208;18.988;2023-05-22T09:57:44;98106.88;;;35.75;17.97
20350;BME280;10332;50.208;18.988;2023-05-22T10:00:15;98102.97;;;35.46;18.93
20350;BME280;10332;50.208;18.988;2023-05-22T10:05:29;98112.97;;;39.98;16.19
20350;BME280;10332;50.208;18.988;2023-05-22T10:08:08;98116.13;;;42.18;15.63
20350;BME280;10332;50.208;18.988;2023-05-22T10:10:37;98106.63;;;42.91;15.03
20350;BME280;10332;50.208;18.988;2023-05-22T10:13:07;98117.56;;;44.28;13.67
20350;BME280;10332;50.208;18.988;2023-05-22T10:15:36;98122.03;;;44.84;13.06
20350;BME280;10332;50.208;18.988;2023-05-22T10:18:04;98117.56;;;46.27;12.87
20350;BME280;10332;50.208;18.988;2023-05-22T10:20:33;98111.88;;;46.11;12.70
20350;BME280;10332;50.208;18.988;2023-05-22T10:23:02;98105.91;;;46.01;12.83
20350;BME280;10332;50.208;18.988;2023-05-22T10:25:30;98107.44;;;44.84;13.16
20350;BME280;10332;50.208;18.988;2023-05-22T10:28:00;98108.81;;;46.25;13.08
20350;BME280;10332;50.208;18.988;2023-05-22T10:33:13;98094.97;;;44.95;12.60
20350;BME280;10332;50.208;18.988;2023-05-22T10:36:04;98097.16;;;40.33;15.31
20350;BME280;10332;50.208;18.988;2023-05-22T10:39:22;98081.44;;;36.27;17.97
20350;BME280;10332;50.208;18.988;2023-05-22T10:41:52;98073.47;;;35.17;19.60
20350;BME280;10332;50.208;18.988;2023-05-22T10:44:21;98063.19;;;33.64;20.25
20350;BME280;10332;50.208;18.988;2023-05-22T10:46:49;98066.91;;;32.97;21.02
20350;BME280;10332;50.208;18.988;2023-05-22T10:49:22;98060.50;;;32.03;21.61
20350;BME280;10332;50.208;18.988;2023-05-22T10:51:56;98069.84;;;30.68;23.01
20350;BME280;10332;50.208;18.988;2023-05-22T10:54:42;98066.50;;;30.42;23.90
20350;BME280;10332;50.208;18.988;2023-05-22T10:57:15;98060.91;;;30.02;24.74
20350;BME280;10332;50.208;18.988;2023-05-22T10:59:46;98052.34;;;30.05;25.05
20350;BME280;10332;50.208;18.988;2023-05-22T11:02:41;98057.00;;;29.98;24.90
20350;BME280;10332;50.208;18.988;2023-05-22T11:07:49;98051.72;;;29.61;25.86
20350;BME280;10332;50.208;18.988;2023-05-22T11:10:26;98049.56;;;29.52;27.00
20350;BME280;10332;50.208;18.988;2023-05-22T11:13:16;98053.53;;;29.67;27.45
20350;BME280;10332;50.208;18.988;2023-05-22T11:15:47;98048.34;;;29.96;26.99
20350;BME280;10332;50.208;18.988;2023-05-22T11:18:16;98048.06;;;29.37;27.20
20350;BME280;10332;50.208;18.988;2023-05-22T11:20:45;98045.31;;;29.26;27.36
20350;BME280;10332;50.208;18.988;2023-05-22T11:23:13;98038.53;;;29.72;27.47
20350;BME280;10332;50.208;18.988;2023-05-22T11:25:41;98038.38;;;29.85;26.99
20350;BME280;10332;50.208;18.988;2023-05-22T11:28:09;98038.75;;;30.00;26.69
20350;BME280;10332;50.208;18.988;2023-05-22T11:30:39;98038.38;;;29.85;26.10
20350;BME280;10332;50.208;18.988;2023-05-22T11:33:08;98038.47;;;30.20;26.71
20350;BME280;10332;50.208;18.988;2023-05-22T11:35:37;98034.75;;;30.33;26.87
20350;BME280;10332;50.208;18.988;2023-05-22T11:38:04;98039.41;;;30.26;27.34
20350;BME280;10332;50.208;18.988;2023-05-22T11:40:33;98032.72;;;30.28;27.16
20350;BME280;10332;50.208;18.988;2023-05-22T11:43:00;98034.25;;;30.36;26.99
20350;BME280;10332;50.208;18.988;2023-05-22T11:45:30;98035.91;;;30.37;27.75
20350;BME280;10332;50.208;18.988;2023-05-22T11:47:57;98033.97;;;30.02;27.44
20350;BME280;10332;50.208;18.988;2023-05-22T11:50:25;98041.19;;;29.90;27.52
20350;BME280;10332;50.208;18.988;2023-05-22T11:53:08;98038.72;;;29.88;27.84
20350;BME280;10332;50.208;18.988;2023-05-22T11:55:35;98039.44;;;29.47;27.29
20350;BME280;10332;50.208;18.988;2023-05-22T11:58:03;98033.94;;;29.42;28.33
20350;BME280;10332;50.208;18.988;2023-05-22T12:00:30;98031.78;;;29.32;28.37
20350;BME280;10332;50.208;18.988;2023-05-22T12:02:58;98030.03;;;29.56;28.52
20350;BME280;10332;50.208;18.988;2023-05-22T12:05:26;98040.28;;;29.66;28.05
20350;BME280;10332;50.208;18.988;2023-05-22T12:07:53;98025.72;;;29.55;27.97
20350;BME280;10332;50.208;18.988;2023-05-22T12:10:21;98037.84;;;28.91;28.07
20350;BME280;10332;50.208;18.988;2023-05-22T12:12:49;98038.34;;;28.81;28.52
20350;BME280;10332;50.208;18.988;2023-05-22T12:15:19;98041.38;;;28.67;28.40
20350;BME280;10332;50.208;18.988;2023-05-22T12:17:47;98030.13;;;28.33;27.81
20350;BME280;10332;50.208;18.988;2023-05-22T12:20:15;98038.16;;;28.58;28.28
20350;BME280;10332;50.208;18.988;2023-05-22T12:22:43;98040.44;;;28.54;28.84
20350;BME280;10332;50.208;18.988;2023-05-22T12:25:14;98030.38;;;28.50;27.80
20350;BME280;10332;50.208;18.988;2023-05-22T12:27:44;98030.84;;;28.65;28.61
20350;BME280;10332;50.208;18.988;2023-05-22T12:30:13;98018.22;;;28.66;28.50
20350;BME280;10332;50.208;18.988;2023-05-22T12:32:47;98027.97;;;28.42;28.28
20350;BME280;10332;50.208;18.988;2023-05-22T12:35:17;98024.28;;;28.36;28.46
20350;BME280;10332;50.208;18.988;2023-05-22T12:37:50;98016.50;;;27.58;28.46
20350;BME280;10332;50.208;18.988;2023-05-22T12:40:18;98022.53;;;27.15;28.70
20350;BME280;10332;50.208;18.988;2023-05-22T12:42:47;98012.19;;;27.12;29.00
20350;BME280;10332;50.208;18.988;2023-05-22T12:45:15;98021.75;;;26.88;28.91
20350;BME280;10332;50.208;18.988;2023-05-22T12:47:44;98014.50;;;26.96;28.49
20350;BME280;10332;50.208;18.988;2023-05-22T12:50:12;98011.75;;;27.22;28.51
20350;BME280;10332;50.208;18.988;2023-05-22T12:52:39;98009.69;;;27.24;28.77
20350;BME280;10332;50.208;18.988;2023-05-22T12:55:09;98018.03;;;27.48;28.81
20350;BME280;10332;50.208;18.988;2023-05-22T12:57:37;98015.22;;;27.74;28.92
20350;BME280;10332;50.208;18.988;2023-05-22T13:00:05;98007.44;;;27.66;28.57
20350;BME280;10332;50.208;18.988;2023-05-22T13:02:33;98009.34;;;27.90;28.21
20350;BME280;10332;50.208;18.988;2023-05-22T13:05:01;98011.44;;;28.13;28.57
20350;BME280;10332;50.208;18.988;2023-05-22T13:07:28;98005.97;;;28.51;27.69
20350;BME280;10332;50.208;18.988;2023-05-22T13:09:56;98002.09;;;28.66;27.98
20350;BME280;10332;50.208;18.988;2023-05-22T13:12:23;97993.94;;;28.97;27.71
20350;BME280;10332;50.208;18.988;2023-05-22T13:14:53;97994.53;;;28.99;27.09
20350;BME280;10332;50.208;18.988;2023-05-22T13:17:20;97995.13;;;29.01;27.44
20350;BME280;10332;50.208;18.988;2023-05-22T13:19:48;97989.06;;;28.88;26.71
20350;BME280;10332;50.208;18.988;2023-05-22T13:22:16;97993.94;;;28.97;26.91
20350;BME280;10332;50.208;18.988;2023-05-22T13:24:43;97994.00;;;28.91;26.76
20350;BME280;10332;50.208;18.988;2023-05-22T13:27:11;97990.44;;;28.97;26.36